Terminal Aerodrome Forecast
Issued by NWS

Home | Current Version | Previous Version | Text Only | Print | Product List | Glossary On
Versions: 1
971
FTUS43 KGRB 210540
TAFOSH
TAF
KOSH 210540Z 2106/2206 11006KT P6SM VCTS BKN090CB
     FM210700 02004KT P6SM BKN090
     FM210900 36004KT P6SM BKN020
     FM211100 03004KT P6SM BKN003
     FM211200 04004KT 3/4SM BR BKN003
     FM211500 08007KT P6SM BKN003
     FM211900 13007KT P6SM BKN035
     FM220500 16006KT P6SM SCT140=

USA.gov is the U.S. government's official web portal to all federal, state and local government web resources and services.